Time;durP1;ratioP1;P1;durP2;ratioP2;P2;SDS_P1;SDS_P2;PMS_P1;PMS_P2;Temp;Humidity;BMP_temperature;BMP_pressure;BME280_temperature;BME280_humidity;BME280_pressure;Samples;Min_cycle;Max_cycle;Signal;HPM_P1;HPM_P2
2022/04/20 00:01:53;;;;;;;6.20;3.70;;;;;;;12.40;45.79;101482.81;4900110;29;20048;-51
2022/04/20 00:04:22;;;;;;;5.13;3.15;;;;;;;12.35;46.57;101475.41;4899348;29;20499;-53
2022/04/20 00:06:50;;;;;;;6.97;3.90;;;;;;;12.25;46.90;101475.34;4889356;29;20045;-48
2022/04/20 00:09:17;;;;;;;7.68;3.90;;;;;;;12.25;46.46;101470.69;4900269;29;20523;-53
2022/04/20 00:11:46;;;;;;;8.55;3.90;;;;;;;12.20;46.96;101470.66;4899332;29;20049;-49
2022/04/20 00:14:14;;;;;;;5.50;3.17;;;;;;;12.20;46.98;101470.66;4892438;29;20408;-47
2022/04/20 00:16:41;;;;;;;6.43;3.83;;;;;;;12.23;47.21;101461.94;4892512;29;20045;-50
2022/04/20 00:19:09;;;;;;;6.50;3.65;;;;;;;12.17;47.49;101460.28;4899903;29;20048;-50
2022/04/20 00:21:37;;;;;;;5.88;3.92;;;;;;;12.13;47.38;101464.59;4900029;29;20041;-51
2022/04/20 00:24:05;;;;;;;6.60;3.50;;;;;;;12.14;47.03;101468.97;4898971;29;20092;-51
2022/04/20 00:26:33;;;;;;;5.75;3.75;;;;;;;12.15;47.22;101460.53;4898830;29;20048;-52
2022/04/20 00:29:00;;;;;;;7.90;4.00;;;;;;;12.01;47.49;101464.78;4899492;29;20044;-52
2022/04/20 00:31:28;;;;;;;7.28;3.65;;;;;;;11.96;47.96;101455.75;4898423;29;20041;-46
2022/04/20 00:33:56;;;;;;;4.85;3.33;;;;;;;11.97;47.81;101462.84;4886682;29;20055;-53
2022/04/20 00:36:23;;;;;;;6.28;3.63;;;;;;;11.98;48.24;101453.53;4897190;29;20055;-51
2022/04/20 00:38:53;;;;;;;7.90;3.92;;;;;;;11.93;48.39;101462.56;4898024;29;20041;-53
2022/04/20 00:41:20;;;;;;;6.10;3.85;;;;;;;11.89;48.44;101470.44;4899300;29;20037;-53
2022/04/20 00:43:48;;;;;;;6.30;3.80;;;;;;;11.82;47.99;101471.72;4895584;29;20148;-50
2022/04/20 00:46:19;;;;;;;8.10;3.85;;;;;;;11.77;48.18;101472.47;4864304;29;20061;-50
2022/04/20 00:48:48;;;;;;;6.20;3.72;;;;;;;11.82;48.33;101467.06;4880059;29;20051;-49
2022/04/20 00:51:16;;;;;;;8.20;3.85;;;;;;;11.96;48.03;101475.69;4873734;29;20399;-51
2022/04/20 00:53:43;;;;;;;9.05;3.80;;;;;;;11.93;47.54;101471.56;4898707;29;20135;-50
2022/04/20 00:56:12;;;;;;;6.55;3.60;;;;;;;11.99;47.34;101466.94;4928288;29;20483;-53
2022/04/20 00:58:41;;;;;;;5.85;3.45;;;;;;;11.81;48.41;101468.16;4899517;29;20123;-50
2022/04/20 01:01:09;;;;;;;9.32;3.55;;;;;;;11.80;47.90;101468.41;4879418;29;20041;-50
2022/04/20 01:03:37;;;;;;;7.03;3.70;;;;;;;11.79;48.45;101473.06;4888467;29;20041;-48
2022/04/20 01:06:26;;;;;;;6.88;3.92;;;;;;;11.79;47.88;101472.25;4911414;29;20076;-49
2022/04/20 01:09:14;;;;;;;6.50;3.70;;;;;;;11.66;48.28;101474.28;4899565;29;20457;-47
2022/04/20 01:11:52;;;;;;;7.15;3.78;;;;;;;11.55;48.27;101477.22;4897914;29;20044;-49
2022/04/20 01:14:34;;;;;;;6.77;3.80;;;;;;;11.56;48.32;101478.84;4884454;29;20471;-52
2022/04/20 01:17:13;;;;;;;7.43;3.67;;;;;;;11.59;48.24;101473.66;4897059;29;20308;-51
2022/04/20 01:20:17;;;;;;;7.20;3.85;;;;;;;11.67;48.46;101478.69;4915834;29;20059;-50
2022/04/20 01:23:04;;;;;;;5.80;3.65;;;;;;;11.76;47.54;101472.72;4896615;29;20528;-50
2022/04/20 01:25:50;;;;;;;;;;;;;;;11.83;47.53;101479.63;4880958;29;20526;-51
2022/04/20 01:28:56;;;;;;;6.30;3.90;;;;;;;11.70;47.79;101474.59;4889380;29;20299;-47
2022/04/20 01:31:38;;;;;;;5.93;3.60;;;;;;;11.65;47.64;101471.84;4898413;29;20063;-52
2022/04/20 01:34:13;;;;;;;6.22;3.83;;;;;;;11.66;48.05;101473.47;4897608;29;20049;-49
2022/04/20 01:36:41;;;;;;;6.90;3.88;;;;;;;11.59;48.21;101478.31;4898837;29;20044;-48
2022/04/20 01:39:08;;;;;;;8.38;4.00;;;;;;;11.43;48.03;101477.38;4897469;29;20045;-48
2022/04/20 01:41:37;;;;;;;7.53;4.07;;;;;;;11.35;48.81;101477.81;4897234;29;20044;-48
2022/04/20 01:44:05;;;;;;;8.27;3.90;;;;;;;11.29;48.49;101479.66;4897476;29;20045;-50
2022/04/20 01:46:51;;;;;;;7.60;3.58;;;;;;;11.18;48.56;101478.72;4898609;29;20143;-47
2022/04/20 01:49:34;;;;;;;8.52;4.10;;;;;;;11.15;48.71;101481.97;4913759;29;20044;-48
2022/04/20 01:52:05;;;;;;;8.27;3.88;;;;;;;11.16;48.50;101480.91;4898008;29;20048;-45
2022/04/20 01:54:58;;;;;;;8.35;3.67;;;;;;;11.14;48.75;101487.69;4895716;29;20040;-50
2022/04/20 01:57:25;;;;;;;6.30;3.60;;;;;;;11.17;48.81;101488.00;4897041;29;20079;-51
2022/04/20 02:00:16;;;;;;;6.65;3.85;;;;;;;11.18;48.41;101495.06;4898198;29;20459;-45
2022/04/20 02:02:54;;;;;;;5.13;3.45;;;;;;;11.12;48.01;101490.66;4882747;29;20041;-52
2022/04/20 02:05:25;;;;;;;5.90;3.55;;;;;;;11.15;47.84;101486.59;4896729;29;20423;-46
2022/04/20 02:08:07;;;;;;;5.95;3.70;;;;;;;11.14;47.55;101487.69;4897446;29;20057;-48
2022/04/20 02:10:54;;;;;;;6.05;3.70;;;;;;;11.16;48.00;101480.91;4898389;29;20044;-51
2022/04/20 02:13:21;;;;;;;7.03;3.40;;;;;;;11.09;47.76;101483.81;4896954;29;20044;-52
2022/04/20 02:15:52;;;;;;;7.30;3.72;;;;;;;11.13;47.71;101491.47;4895133;29;20055;-50
2022/04/20 02:18:38;;;;;;;;;;;;;;;11.25;47.31;101486.72;4898652;29;20064;-48
2022/04/20 02:21:34;;;;;;;5.78;3.47;;;;;;;11.19;47.18;101476.84;4900594;29;20006;-49
2022/04/20 02:24:04;;;;;;;8.18;3.90;;;;;;;11.17;47.79;101484.44;4896427;29;20534;-51
2022/04/20 02:26:32;;;;;;;9.02;3.83;;;;;;;11.24;47.31;101483.16;4895994;29;20471;-50
2022/04/20 02:29:00;;;;;;;6.90;3.88;;;;;;;11.19;47.25;101485.00;4898156;29;20044;-51
2022/04/20 02:31:27;;;;;;;7.82;3.47;;;;;;;11.22;47.17;101492.69;4912978;29;20049;-52
2022/04/20 02:33:55;;;;;;;7.43;4.20;;;;;;;11.21;47.28;101491.03;4895485;29;20115;-51
2022/04/20 02:36:23;;;;;;;8.77;4.15;;;;;;;11.14;46.83;101487.69;4920436;29;20041;-50
2022/04/20 02:38:51;;;;;;;8.05;3.80;;;;;;;11.05;47.05;101493.59;4898201;29;20043;-53
2022/04/20 02:41:18;;;;;;;7.55;3.92;;;;;;;11.00;47.08;101493.53;4881069;29;20071;-51
2022/04/20 02:43:46;;;;;;;6.85;3.97;;;;;;;11.02;47.17;101496.81;4898150;29;20072;-52
2022/04/20 02:46:14;;;;;;;7.00;3.92;;;;;;;10.98;46.94;101489.41;4876635;29;20515;-51
2022/04/20 02:48:42;;;;;;;6.90;4.15;;;;;;;10.95;47.33;101496.19;4877748;29;20140;-51
2022/04/20 02:51:09;;;;;;;8.48;4.70;;;;;;;10.98;47.51;101492.94;4878886;29;20041;-51
2022/04/20 02:53:37;;;;;;;7.68;5.30;;;;;;;10.88;46.94;101492.84;4892571;29;20041;-48
2022/04/20 02:56:05;;;;;;;7.80;5.10;;;;;;;10.87;47.31;101493.88;4928124;29;20115;-51
2022/04/20 02:58:33;;;;;;;8.95;5.20;;;;;;;10.88;47.21;101498.28;4896687;29;20049;-48
2022/04/20 03:01:01;;;;;;;8.07;4.40;;;;;;;10.79;47.65;101486.97;4898301;29;20480;-48
2022/04/20 03:03:36;;;;;;;6.68;4.30;;;;;;;10.70;47.55;101488.50;4897002;29;20067;-53
2022/04/20 03:06:19;;;;;;;6.93;4.38;;;;;;;10.69;47.85;101494.22;4878854;29;20081;-49
2022/04/20 03:08:47;;;;;;;8.13;4.60;;;;;;;10.72;47.32;101494.53;4879681;29;20144;-50
2022/04/20 03:11:19;;;;;;;6.20;4.07;;;;;;;10.71;47.68;101497.53;4896043;29;20056;-53
2022/04/20 03:13:49;;;;;;;7.43;4.20;;;;;;;10.78;47.56;101503.59;4880322;29;20051;-52
2022/04/20 03:16:19;;;;;;;7.03;4.00;;;;;;;10.78;47.30;101500.88;4877833;29;20056;-49
2022/04/20 03:18:49;;;;;;;7.70;4.15;;;;;;;10.80;47.03;101502.28;4890325;29;20045;-51
2022/04/20 03:21:22;;;;;;;6.65;4.00;;;;;;;10.86;47.09;101500.44;4896433;29;20514;-54
2022/04/20 03:23:55;;;;;;;6.13;3.83;;;;;;;10.85;47.00;101502.34;4895657;29;20071;-55
2022/04/20 03:26:40;;;;;;;7.18;4.10;;;;;;;10.82;47.09;101510.19;4914049;29;20472;-54
2022/04/20 03:29:15;;;;;;;6.82;3.65;;;;;;;10.70;47.34;101514.94;4896502;29;20392;-51
2022/04/20 03:31:43;;;;;;;6.63;3.90;;;;;;;10.59;47.41;101517.53;4899240;29;20057;-52
2022/04/20 03:34:12;;;;;;;8.20;4.53;;;;;;;10.49;47.78;101514.66;4898276;29;20045;-55
2022/04/20 03:36:40;;;;;;;8.68;4.35;;;;;;;10.51;47.81;101520.69;4900185;29;20044;-52
2022/04/20 03:39:07;;;;;;;6.35;3.95;;;;;;;10.59;47.88;101519.44;4899488;29;20500;-53
2022/04/20 03:41:35;;;;;;;7.88;4.13;;;;;;;10.57;47.52;101522.41;4898560;29;20051;-54
2022/04/20 03:44:05;;;;;;;7.07;4.03;;;;;;;10.49;47.76;101516.56;4899052;29;20504;-54
2022/04/20 03:46:32;;;;;;;8.07;4.72;;;;;;;10.45;48.11;101524.41;4900386;29;20139;-52
2022/04/20 03:49:00;;;;;;;10.55;5.22;;;;;;;10.47;47.97;101527.69;4900470;29;20045;-55
2022/04/20 03:51:28;;;;;;;8.77;4.97;;;;;;;10.49;47.99;101530.19;4900629;29;20051;-52
2022/04/20 03:53:56;;;;;;;7.82;4.95;;;;;;;10.36;48.07;101528.63;4884436;29;20040;-50
2022/04/20 03:56:26;;;;;;;9.63;4.70;;;;;;;10.25;48.55;101519.44;4882621;29;20057;-54
2022/04/20 03:58:53;;;;;;;8.18;4.55;;;;;;;10.16;49.01;101521.75;4900958;29;20046;-51
2022/04/20 04:01:21;;;;;;;12.02;5.05;;;;;;;10.05;49.32;101522.66;4881874;29;20109;-51
2022/04/20 04:03:49;;;;;;;8.10;4.43;;;;;;;10.10;49.50;101521.91;4897749;29;20049;-53
2022/04/20 04:06:20;;;;;;;8.45;4.70;;;;;;;10.09;49.22;101521.09;4898146;29;20041;-52
2022/04/20 04:08:47;;;;;;;8.00;4.20;;;;;;;10.10;49.32;101528.19;4899026;29;20048;-50
2022/04/20 04:11:15;;;;;;;7.85;4.32;;;;;;;10.17;49.24;101522.56;4899434;29;20044;-52
2022/04/20 04:13:43;;;;;;;7.55;4.10;;;;;;;10.15;48.94;101520.13;4899444;29;20120;-52
2022/04/20 04:16:10;;;;;;;6.55;4.13;;;;;;;10.19;48.86;101521.25;4898436;29;20065;-50
2022/04/20 04:18:38;;;;;;;8.43;4.10;;;;;;;10.27;48.53;101527.34;4897420;29;20503;-48
2022/04/20 04:21:10;;;;;;;7.30;3.70;;;;;;;10.33;48.67;101524.50;4900073;29;20047;-53
2022/04/20 04:23:38;;;;;;;7.65;4.53;;;;;;;10.36;48.05;101526.72;4898899;29;20523;-53
2022/04/20 04:26:30;;;;;;;7.18;3.72;;;;;;;10.32;48.63;101535.63;4898010;29;20496;-52
2022/04/20 04:28:58;;;;;;;9.70;3.95;;;;;;;10.28;47.99;101532.59;4898742;29;20045;-52
2022/04/20 04:31:27;;;;;;;7.72;4.13;;;;;;;10.30;48.19;101529.63;4898675;29;20044;-54
2022/04/20 04:33:55;;;;;;;6.32;3.97;;;;;;;10.27;48.49;101538.25;4898903;29;20041;-53
2022/04/20 04:36:24;;;;;;;5.60;3.83;;;;;;;10.21;48.25;101537.34;4899002;29;20104;-54
2022/04/20 04:38:54;;;;;;;7.55;3.78;;;;;;;10.16;48.63;101543.53;4898618;29;20052;-53
2022/04/20 04:41:32;;;;;;;6.55;3.97;;;;;;;10.22;48.19;101542.56;4898813;29;20559;-52
2022/04/20 04:44:01;;;;;;;7.60;4.25;;;;;;;10.20;48.00;101546.59;4898284;29;20045;-54
2022/04/20 04:49:28;;;;;;;5.63;3.55;;;;;;;10.11;48.58;101551.63;4897789;29;20503;-50
2022/04/20 04:51:57;;;;;;;6.43;4.00;;;;;;;10.12;48.55;101555.97;4898357;29;20496;-54
2022/04/20 04:54:26;;;;;;;9.65;4.10;;;;;;;10.08;48.75;101557.56;4897978;29;20041;-54
2022/04/20 04:56:55;;;;;;;8.30;3.90;;;;;;;10.03;48.75;101557.50;4880788;29;20512;-55
2022/04/20 04:59:23;;;;;;;8.80;4.28;;;;;;;10.00;49.07;101557.97;4893840;29;20388;-54
2022/04/20 05:01:55;;;;;;;6.35;3.70;;;;;;;10.00;49.32;101561.50;4895206;29;20052;-49
2022/04/20 05:04:23;;;;;;;7.55;4.25;;;;;;;10.05;49.18;101560.75;4898291;29;20040;-54
2022/04/20 05:06:57;;;;;;;9.27;3.90;;;;;;;9.95;49.09;101566.84;4897332;29;20044;-54
2022/04/20 05:09:34;;;;;;;7.13;3.77;;;;;;;9.92;49.56;101569.25;4458327;29;10003936;-56
2022/04/20 05:12:02;;;;;;;6.32;4.10;;;;;;;9.97;49.14;101572.88;4892330;29;20588;-54
2022/04/20 05:14:34;;;;;;;10.40;4.40;;;;;;;9.94;49.25;101572.56;4893670;29;20104;-50
2022/04/20 05:17:03;;;;;;;10.73;4.25;;;;;;;9.87;49.61;101574.63;4876310;29;20365;-55
2022/04/20 05:19:31;;;;;;;8.98;4.20;;;;;;;9.76;49.99;101568.16;4876268;29;20113;-54
2022/04/20 05:22:05;;;;;;;6.32;4.00;;;;;;;9.76;50.28;101573.59;4891650;29;20508;-54
2022/04/20 05:24:36;;;;;;;6.60;3.65;;;;;;;9.77;50.29;101573.34;4894852;29;20839;-55
2022/04/20 05:27:08;;;;;;;8.57;4.57;;;;;;;9.78;49.99;101575.00;4894237;29;20064;-55
2022/04/20 05:30:04;;;;;;;9.10;3.88;;;;;;;9.78;50.32;101583.16;4879427;29;20068;-52
2022/04/20 05:32:32;;;;;;;6.60;3.97;;;;;;;9.77;50.33;101578.78;4882080;29;20064;-54
2022/04/20 05:35:04;;;;;;;7.82;4.30;;;;;;;9.85;50.24;101590.38;4875499;29;20409;-51
2022/04/20 05:43:11;;;;;;;;;;;;;;;9.87;50.58;101585.50;4892120;29;20049;-51
2022/04/20 05:45:39;;;;;;;8.98;4.20;;;;;;;9.73;50.91;101577.63;4893034;29;20387;-51
2022/04/20 05:48:23;;;;;;;8.05;4.35;;;;;;;9.75;51.08;101580.94;4876094;29;20053;-52
2022/04/20 05:50:52;;;;;;;7.95;4.40;;;;;;;9.84;50.91;101580.53;4894346;29;20053;-53
2022/04/20 05:53:22;;;;;;;9.80;4.50;;;;;;;9.89;50.86;101580.66;4894610;29;20079;-54
2022/04/20 05:55:50;;;;;;;8.27;3.92;;;;;;;9.94;51.31;101572.56;4893054;29;20059;-53
2022/04/20 05:58:19;;;;;;;9.35;4.22;;;;;;;10.05;51.13;101579.00;4895583;29;20099;-55
2022/04/20 06:00:48;;;;;;;7.20;3.70;;;;;;;10.00;50.75;101575.09;4894508;29;20045;-54
2022/04/20 06:03:36;;;;;;;8.50;4.85;;;;;;;10.00;50.69;101571.56;4877249;29;20072;-55
2022/04/20 06:06:24;;;;;;;12.80;5.13;;;;;;;10.02;50.71;101575.69;4921661;29;20048;-48
2022/04/20 06:08:54;;;;;;;11.13;4.38;;;;;;;10.07;50.36;101568.69;4894572;29;20493;-51
2022/04/20 06:11:54;;;;;;;8.07;4.10;;;;;;;10.01;50.73;101573.25;4886372;29;20040;-54
2022/04/20 06:14:24;;;;;;;13.27;5.20;;;;;;;10.10;50.18;101570.91;4877969;29;20044;-54
2022/04/20 06:17:06;;;;;;;9.77;5.40;;;;;;;10.15;50.16;101580.03;4893596;29;20048;-55
2022/04/20 06:19:45;;;;;;;12.05;4.13;;;;;;;10.19;50.10;101585.78;4893864;29;20076;-53
2022/04/20 06:22:25;;;;;;;8.95;4.25;;;;;;;10.26;50.07;101580.19;4893676;29;20492;-54
2022/04/20 06:25:20;;;;;;;;;;;;;;;10.37;50.33;101573.88;4908518;29;20571;-50
2022/04/20 06:28:11;;;;;;;11.05;5.45;;;;;;;10.42;49.79;101574.75;4898296;29;19979;-52
2022/04/20 06:31:05;;;;;;;7.60;4.45;;;;;;;10.38;49.89;101572.78;4893654;29;20045;-52
2022/04/20 06:33:59;;;;;;;8.45;4.22;;;;;;;10.36;50.29;101574.94;4908260;29;20078;-52
2022/04/20 06:36:43;;;;;;;12.23;6.20;;;;;;;10.33;50.25;101578.16;4877141;29;20516;-52
2022/04/20 06:39:30;;;;;;;7.90;4.32;;;;;;;10.36;50.37;101574.94;4890857;29;20045;-53
2022/04/20 06:42:07;;;;;;;;;;;;;;;10.42;50.28;101580.22;4890307;29;20494;-51
2022/04/20 06:44:59;;;;;;;9.10;4.10;;;;;;;10.49;50.07;101582.78;4892919;29;20030;-54
2022/04/20 06:47:40;;;;;;;9.13;4.13;;;;;;;10.54;49.94;101576.59;4874919;29;20059;-54
2022/04/20 06:50:42;;;;;;;13.82;8.23;;;;;;;10.56;50.16;101580.72;4876486;29;20140;-52
2022/04/20 06:59:00;;;;;;;10.40;4.20;;;;;;;10.67;50.11;101581.66;4894460;29;19971;-51
2022/04/20 07:01:51;;;;;;;10.15;5.35;;;;;;;10.73;49.92;101585.31;4897455;29;20075;-54
2022/04/20 07:04:53;;;;;;;9.98;4.47;;;;;;;10.75;50.13;101583.13;4887348;29;20127;-52
2022/04/20 07:07:47;;;;;;;9.00;4.07;;;;;;;10.74;50.47;101592.41;4896530;29;20059;-56
2022/04/20 07:10:38;;;;;;;8.32;4.45;;;;;;;10.80;50.11;101580.47;4887772;29;20400;-53
2022/04/20 07:13:12;;;;;;;10.02;5.32;;;;;;;10.89;49.68;101589.88;4899351;29;20075;-53
2022/04/20 07:15:40;;;;;;;8.77;4.07;;;;;;;10.95;49.96;101586.16;4900405;29;20044;-53
2022/04/20 07:18:08;;;;;;;10.82;4.47;;;;;;;10.98;50.44;101588.38;4900209;29;20071;-52
2022/04/20 07:20:59;;;;;;;16.35;6.82;;;;;;;10.99;50.16;101590.06;4917311;29;20132;-53
2022/04/20 07:23:43;;;;;;;13.18;6.05;;;;;;;10.98;50.65;101582.94;4898733;29;20508;-54
2022/04/20 07:26:29;;;;;;;9.15;5.78;;;;;;;11.00;50.72;101588.97;4901481;29;20485;-52
2022/04/20 07:29:07;;;;;;;8.85;5.13;;;;;;;11.08;49.92;101591.25;4900743;29;20045;-53
2022/04/20 07:31:43;;;;;;;8.95;4.63;;;;;;;11.12;50.20;101588.84;4901938;29;20404;-53
2022/04/20 07:34:43;;;;;;;9.93;4.40;;;;;;;11.10;49.86;101591.00;4912113;29;20521;-53
2022/04/20 07:37:37;;;;;;;10.10;5.85;;;;;;;11.04;50.02;101598.28;4906230;29;20056;-54
2022/04/20 07:40:19;;;;;;;14.15;6.05;;;;;;;11.10;49.83;101599.19;4900645;29;20048;-53
2022/04/20 07:42:56;;;;;;;13.52;5.32;;;;;;;11.17;49.90;101604.47;4899395;29;20036;-54
2022/04/20 07:45:46;;;;;;;9.55;4.43;;;;;;;11.21;49.47;101603.69;4900467;29;20067;-51
2022/04/20 07:48:46;;;;;;;11.55;5.60;;;;;;;11.28;49.54;101603.50;4907377;29;20051;-50
2022/04/20 07:51:37;;;;;;;8.63;4.20;;;;;;;11.33;49.80;101605.47;4883479;29;20070;-48
2022/04/20 07:54:23;;;;;;;8.52;4.72;;;;;;;11.34;49.53;101612.59;4882237;29;20052;-52
2022/04/20 07:57:16;;;;;;;13.00;4.70;;;;;;;11.34;48.88;101602.50;4883220;29;20060;-51
2022/04/20 08:00:07;;;;;;;11.23;4.40;;;;;;;11.37;49.82;101601.97;4892767;29;20032;-52
2022/04/20 08:03:18;;;;;;;13.77;4.25;;;;;;;11.48;48.89;101603.75;4900813;29;20045;-49
2022/04/20 08:05:50;;;;;;;9.90;4.40;;;;;;;11.54;49.26;101610.09;4900421;29;20041;-49
2022/04/20 08:08:19;;;;;;;8.80;5.28;;;;;;;11.59;49.05;101614.78;4884756;29;20104;-50
2022/04/20 08:10:48;;;;;;;16.52;4.72;;;;;;;11.64;48.54;101612.09;4883400;29;20033;-49
2022/04/20 08:16:09;;;;;;;9.18;4.40;;;;;;;11.77;48.16;101606.25;4898843;29;20044;-49
2022/04/20 08:18:57;;;;;;;9.13;4.68;;;;;;;11.83;47.59;101610.69;4899529;29;20033;-53
2022/04/20 08:21:46;;;;;;;6.60;3.92;;;;;;;11.86;47.62;101612.91;4879962;29;20053;-53
2022/04/20 08:24:14;;;;;;;9.15;4.22;;;;;;;11.89;47.14;101612.44;4881731;29;20140;-49
2022/04/20 08:26:41;;;;;;;10.45;3.90;;;;;;;11.88;46.70;101613.53;4881407;29;20049;-51
2022/04/20 08:29:10;;;;;;;8.30;3.85;;;;;;;11.90;47.28;101611.34;4884933;29;20135;-50
2022/04/20 08:31:38;;;;;;;7.57;4.63;;;;;;;11.97;47.50;101615.78;4899957;29;20056;-51
2022/04/20 08:34:06;;;;;;;8.48;3.80;;;;;;;12.02;47.38;101610.38;4898852;29;20049;-50
2022/04/20 08:36:34;;;;;;;7.10;4.03;;;;;;;12.10;47.62;101612.66;4898904;29;20052;-53
2022/04/20 08:39:02;;;;;;;9.88;4.93;;;;;;;12.16;46.88;101611.59;4899519;29;20037;-52
2022/04/20 08:41:30;;;;;;;10.52;3.92;;;;;;;12.23;46.23;101611.38;4899998;29;20055;-53
2022/04/20 08:44:01;;;;;;;10.57;4.63;;;;;;;12.26;46.45;101611.69;4899854;29;20048;-52
2022/04/20 08:46:40;;;;;;;7.43;4.28;;;;;;;12.29;46.10;101608.44;4899795;29;20547;-52
2022/04/20 08:49:08;;;;;;;6.70;4.22;;;;;;;12.33;45.66;101615.00;4883029;29;20091;-50
2022/04/20 08:54:36;;;;;;;9.18;4.15;;;;;;;12.36;45.36;101603.59;4919240;29;20061;-53
2022/04/20 08:57:16;;;;;;;9.68;3.90;;;;;;;12.43;45.57;101608.00;4899385;29;20045;-53
2022/04/20 08:59:44;;;;;;;9.18;3.80;;;;;;;12.49;45.30;101604.22;4896339;29;20036;-54
2022/04/20 09:02:12;;;;;;;10.13;4.20;;;;;;;12.56;44.57;101608.38;4898035;29;20132;-48
2022/04/20 09:04:41;;;;;;;9.50;3.95;;;;;;;12.60;44.35;101611.41;4899561;29;20036;-50
2022/04/20 09:07:10;;;;;;;6.90;3.70;;;;;;;12.63;45.63;101608.16;4898456;29;20105;-53
2022/04/20 09:09:39;;;;;;;9.82;4.32;;;;;;;12.73;46.02;101602.75;4897276;29;20544;-50
2022/04/20 09:12:15;;;;;;;16.00;5.68;;;;;;;12.88;47.80;101606.69;4898812;29;20040;-53
2022/04/20 09:14:45;;;;;;;7.57;3.90;;;;;;;12.85;44.41;101601.75;4898279;29;20068;-53
2022/04/20 09:17:13;;;;;;;7.93;4.10;;;;;;;12.91;43.67;101592.47;4898814;29;20392;-50
2022/04/20 09:19:46;;;;;;;7.03;3.65;;;;;;;12.93;43.41;101602.06;4888203;29;20493;-48
2022/04/20 09:22:19;;;;;;;8.32;4.22;;;;;;;12.94;44.29;101591.94;4875681;29;20052;-51
2022/04/20 09:25:03;;;;;;;9.88;3.70;;;;;;;12.94;44.40;101594.66;4883063;29;20052;-51
2022/04/20 09:27:31;;;;;;;10.75;3.90;;;;;;;12.93;45.50;101584.81;4898981;29;20051;-50
2022/04/20 09:30:00;;;;;;;7.38;3.50;;;;;;;12.97;44.60;101586.75;4898585;29;20041;-49
2022/04/20 09:32:36;;;;;;;9.10;4.20;;;;;;;13.04;43.09;101583.81;4882152;29;20124;-51
2022/04/20 09:35:07;;;;;;;10.25;3.92;;;;;;;13.05;43.72;101588.16;4898690;29;20044;-48
2022/04/20 09:37:36;;;;;;;6.97;3.50;;;;;;;13.09;41.95;101577.53;4898929;29;20044;-51
2022/04/20 09:40:32;;;;;;;6.60;3.60;;;;;;;13.11;42.72;101592.59;4897601;29;20049;-49
2022/04/20 09:43:06;;;;;;;7.18;3.30;;;;;;;13.12;41.50;101591.50;4897875;29;20412;-49
2022/04/20 09:45:36;;;;;;;8.25;3.45;;;;;;;13.14;41.18;101577.56;4877792;29;20061;-48
2022/04/20 09:51:22;;;;;;;9.10;3.60;;;;;;;13.17;42.21;101580.56;4898512;29;20048;-49
2022/04/20 09:53:50;;;;;;;7.32;3.63;;;;;;;13.27;42.39;101573.50;4898656;29;20488;-48
2022/04/20 09:56:21;;;;;;;7.75;3.40;;;;;;;13.35;42.36;101570.28;4896391;29;20048;-52
2022/04/20 09:59:02;;;;;;;5.78;3.38;;;;;;;13.32;42.56;101571.63;4898157;29;20064;-51
2022/04/20 10:01:33;;;;;;;8.57;3.40;;;;;;;13.37;43.82;101570.81;4898649;29;20047;-53
2022/04/20 10:04:06;;;;;;;7.05;3.40;;;;;;;13.48;43.41;101577.16;4882658;29;20471;-49
2022/04/20 10:06:34;;;;;;;6.53;3.20;;;;;;;13.44;42.07;101574.13;4898083;29;20456;-48
2022/04/20 10:09:03;;;;;;;8.10;3.22;;;;;;;13.45;42.00;101570.31;4898031;29;20068;-49
2022/04/20 10:11:32;;;;;;;7.82;3.60;;;;;;;13.42;42.72;101563.47;4896980;29;20048;-50
2022/04/20 10:16:49;;;;;;;5.78;3.50;;;;;;;13.49;43.32;101554.16;4880148;29;20041;-48
2022/04/20 10:19:25;;;;;;;8.98;3.67;;;;;;;13.55;42.16;101555.84;4891943;29;20136;-51
2022/04/20 10:21:54;;;;;;;5.97;3.65;;;;;;;13.58;42.71;101547.06;4896693;29;20051;-50
2022/04/20 10:24:36;;;;;;;6.30;3.50;;;;;;;13.59;42.40;101552.28;4896937;29;20389;-51
2022/04/20 10:27:10;;;;;;;6.15;3.63;;;;;;;13.58;42.12;101545.16;4897170;29;20516;-50
2022/04/20 10:29:55;;;;;;;9.60;3.65;;;;;;;13.55;42.22;101537.47;4896145;29;20045;-51
2022/04/20 10:32:31;;;;;;;8.25;3.95;;;;;;;13.66;41.48;101532.84;4881315;29;20127;-49
2022/04/20 10:35:08;;;;;;;5.60;3.17;;;;;;;13.74;41.06;101532.31;4882819;29;20060;-49
2022/04/20 10:37:42;;;;;;;6.03;3.22;;;;;;;13.81;40.76;101521.91;4896645;29;20045;-49
2022/04/20 10:40:19;;;;;;;6.28;3.88;;;;;;;13.89;41.92;101525.22;4881194;29;20511;-50
2022/04/20 10:43:21;;;;;;;8.07;3.47;;;;;;;13.92;42.51;101527.41;4897100;29;20093;-50
2022/04/20 10:46:11;;;;;;;8.00;3.97;;;;;;;13.93;42.58;101527.13;4900699;29;20056;-49
2022/04/20 10:49:00;;;;;;;6.47;3.47;;;;;;;13.91;42.66;101526.59;4900671;29;20044;-46
2022/04/20 10:51:34;;;;;;;8.90;3.60;;;;;;;13.89;42.57;101515.06;4901697;29;20056;-50
2022/04/20 10:54:23;;;;;;;8.15;3.80;;;;;;;13.93;43.20;101523.56;4901600;29;20500;-51
2022/04/20 10:57:02;;;;;;;7.88;4.20;;;;;;;13.99;42.89;101515.06;4896893;29;20056;-48
2022/04/20 10:59:30;;;;;;;8.35;4.22;;;;;;;14.03;42.64;101521.66;4901541;29;20124;-51
2022/04/20 11:02:03;;;;;;;8.77;4.70;;;;;;;14.09;42.61;101514.25;4901271;29;20041;-51
2022/04/20 11:04:46;;;;;;;9.05;3.90;;;;;;;14.10;42.03;101515.09;4901678;29;20053;-48
2022/04/20 11:07:26;;;;;;;5.93;3.40;;;;;;;14.07;41.01;101509.06;4900255;29;20048;-50
2022/04/20 11:10:02;;;;;;;6.32;3.40;;;;;;;14.06;41.13;101510.13;4899420;29;20049;-49
2022/04/20 11:21:33;;;;;;;6.57;3.00;;;;;;;14.32;41.15;101493.66;4897795;29;20041;-48
2022/04/20 11:24:11;;;;;;;10.55;3.55;;;;;;;14.32;40.45;101490.94;4899927;29;20481;-44
2022/04/20 11:26:49;;;;;;;8.68;3.65;;;;;;;14.30;40.18;101487.63;4900209;29;20070;-50
2022/04/20 11:29:28;;;;;;;5.20;3.28;;;;;;;14.31;40.39;101494.78;4901264;29;20049;-48
2022/04/20 11:31:58;;;;;;;5.65;3.38;;;;;;;14.38;40.06;101494.47;4896860;29;20071;-49
2022/04/20 11:34:41;;;;;;;10.07;3.40;;;;;;;14.35;40.40;101490.38;4899432;29;20051;-48
2022/04/20 11:37:10;;;;;;;5.10;3.10;;;;;;;14.38;40.12;101484.34;4899745;29;20041;-48
2022/04/20 11:39:37;;;;;;;7.10;3.25;;;;;;;14.41;39.46;101489.28;4900808;29;20466;-48
2022/04/20 11:42:06;;;;;;;9.85;3.78;;;;;;;14.44;39.76;101483.22;4900694;29;20048;-47
2022/04/20 11:44:41;;;;;;;5.85;3.30;;;;;;;14.52;39.82;101486.50;4900874;29;20499;-50
2022/04/20 11:47:28;;;;;;;4.70;3.20;;;;;;;14.55;39.68;101481.31;4897966;29;20064;-48
2022/04/20 11:49:57;;;;;;;5.95;3.30;;;;;;;14.55;39.12;101477.75;4895277;29;20041;-46
2022/04/20 11:52:37;;;;;;;6.93;3.08;;;;;;;14.66;39.67;101468.38;4890042;29;20411;-50
2022/04/20 11:55:46;;;;;;;5.05;3.22;;;;;;;14.69;39.28;101471.38;4953425;28;20051;-50
2022/04/20 11:58:14;;;;;;;7.55;3.33;;;;;;;14.67;39.25;101465.38;4898360;29;20393;-49
2022/04/20 12:00:43;;;;;;;7.80;3.72;;;;;;;14.64;39.31;101459.63;4900499;29;20566;-50
2022/04/20 12:03:11;;;;;;;7.60;3.60;;;;;;;14.67;39.45;101464.53;4898433;29;20051;-49
2022/04/20 12:05:38;;;;;;;7.90;3.35;;;;;;;14.77;40.09;101458.19;4899414;29;20048;-51
2022/04/20 12:08:09;;;;;;;5.82;3.30;;;;;;;14.83;39.62;101452.41;4898369;29;20054;-49
2022/04/20 12:10:39;;;;;;;6.20;2.90;;;;;;;14.84;40.07;101454.06;4900465;29;20053;-47
2022/04/20 12:13:07;;;;;;;5.85;3.50;;;;;;;14.86;39.56;101451.03;4900498;29;20044;-44
2022/04/20 12:15:35;;;;;;;6.82;3.22;;;;;;;14.90;39.51;101446.63;4898485;29;20086;-46
2022/04/20 12:18:08;;;;;;;7.65;3.60;;;;;;;14.96;39.58;101452.91;4898954;29;20063;-44
2022/04/20 12:20:44;;;;;;;7.30;3.03;;;;;;;14.97;39.73;101451.81;4900443;29;20048;-42
2022/04/20 12:23:12;;;;;;;10.05;3.53;;;;;;;14.98;39.58;101442.47;4899468;29;20411;-46
2022/04/20 12:25:40;;;;;;;5.88;3.67;;;;;;;14.96;39.65;101439.16;4900529;29;20140;-48
2022/04/20 12:28:35;;;;;;;6.10;3.58;;;;;;;14.92;39.57;101436.19;4899355;29;20427;-47
2022/04/20 12:31:01;;;;;;;6.75;3.90;;;;;;;14.96;39.39;101430.94;4899757;29;20056;-48
2022/04/20 12:33:30;;;;;;;7.03;3.42;;;;;;;15.04;41.21;101442.16;4890652;29;20049;-46
2022/04/20 12:36:07;;;;;;;7.07;3.42;;;;;;;15.18;39.95;101434.13;4880033;29;20072;-47
2022/04/20 12:38:46;;;;;;;6.75;3.63;;;;;;;15.21;39.47;101419.00;4882420;29;20041;-48